Fontana, California
Current Conditions -  °F | °C
As of 9:53 AM on Thursday 27 Nov 2014 (Local Time) from KONT Reporting Station
Broken Clouds Broken Clouds  
Wind Chill: 77°   Ceiling: 25000
Heat Index: 77°   Visibility: 10mi
Dew Point: 21°   Wind: 0mph
Humidity: 12%   Direction: NA
Pressure: 30.14"   Gusts: NA
Location:  34.1°N, 117.43°W
Report Text: KONT 271753Z 00000KT 10SM FEW050 BKN250 25/M06 A3014 RMK AO2 SLP195 FU FEW050 T02501061 10250 20094 50001
Loading
Personal Weather Stations






























Interactive Weather Map New forecast layout! Learn more

10-Day Weather Forecast

Advertisements
Track Severe Weather on mobile